01:45
Airports
History
Links
Donate
Help keep this website running!
PayPal
Bitcoin
This page is community maintained. The information is intended for PC simulator navigation or reference.
Always use approved charts for navigation.
EDXA
Achmer
Achmer (EDXA)
Bramsche, Niedersachsen, Germany (49565)
(C)
Lat/Lng:52° 22' 39" N / 7° 54' 48.6" E
52.3775 / 7.9135
Elevation:177'ft / 54mMSL
ID / ICAO:EDXA
Runways:1
Longest:7-25
Grass 290m / 950ft
Controlled:Yes
Nearby Weather01:20 GMT 2017-11-23
Nearby weather at EDDG, Muenster Osnabrueck located 19.4 nautical miles from EDXA
Altimeter: 29.56
Visibility: 6.2 statute miles
Wind: 6 knots (from 140°)
Temp: 9°c / 48°f
Humidity: 66.0%

METAR: EDDG 230120Z 14006KT CAVOK 09/03 Q1001 NOSIG

(Powered by phpweather)
Airport Radio Frequencies
Tower: 123.05
Nearby VORs <50NM
Nearby NDBs
Runway 7 / 25
Dimensions:289.7 x 9.1m 950' x 30'ft
Surface:Grass
Runway 7 [A]Runway 25 [B]
Heading:069°TH 249°TH
Lat:
Lng:
52° 22' 37.34"N
7° 54' 41.5"E
52° 22' 40.66"N
7° 54' 55.7"E
User Notes and Comments
52° 22' 39" N / 7° 54' 48.6" E
Distance To
Airport ID:
Nearby Airports
(U) Osnabrueck Atterheide 6.9 NM
EDWO SSE 156°
(U) Damme 13.7 NM
EDWC NE 56°
(C) Bohmte-Bad Essen 17.7 NM
EDXD E 95°
(C) Rheine-Eschendorf 19.2 NM
EDXE WSW 248°
(C) Muenster Osnabrueck 19.4 NM
EDDG ( WX ) SSW 209°
(C) RHEINE BENTLAGE 23.0 NM
ETHE ( WX ) WSW 254°
(C) Diepholz 23.0 NM
ETND ( WX ) NE 51°
VFR Chart
Flight Planning at SkyVector.com